createdAt,value
2018-12-02T00:02:00.054Z,419.62
2018-12-02T00:04:29.783Z,420.77
2018-12-02T00:07:00.413Z,421.80
2018-12-02T00:09:29.878Z,426.60
2018-12-02T00:12:00.495Z,412.50
2018-12-02T00:14:30.026Z,428.42
2018-12-02T00:16:59.584Z,418.27
2018-12-02T00:19:30.110Z,408.97
2018-12-02T00:21:59.574Z,392.32
2018-12-02T00:24:30.715Z,386.35
2018-12-02T00:27:00.396Z,379.60
2018-12-02T00:42:33.394Z,381.17
2018-12-02T00:45:03.195Z,368.88
2018-12-02T00:47:33.712Z,376.82
2018-12-02T00:50:03.651Z,374.67
2018-12-02T00:52:34.425Z,372.23
2018-12-02T00:55:07.052Z,372.63
2018-12-02T00:57:37.604Z,378.00
2018-12-02T01:00:11.657Z,379.48
2018-12-02T01:02:42.703Z,380.50
2018-12-02T01:05:14.202Z,380.98
2018-12-02T01:07:43.829Z,390.12
2018-12-02T01:10:16.287Z,384.40
2018-12-02T01:12:46.456Z,395.37
2018-12-02T01:15:17.317Z,385.75
2018-12-02T01:17:47.570Z,383.47
2018-12-02T01:20:20.082Z,395.18
2018-12-02T01:22:49.674Z,398.87
2018-12-02T01:25:19.360Z,396.80
2018-12-02T01:27:48.802Z,398.55
2018-12-02T01:30:19.919Z,402.77
2018-12-02T01:32:49.793Z,415.40
2018-12-02T01:35:19.843Z,414.13
2018-12-02T01:37:50.469Z,411.65
2018-12-02T01:40:21.866Z,420.08
2018-12-02T01:42:53.426Z,423.15
2018-12-02T01:45:26.420Z,417.75
2018-12-02T01:47:58.024Z,416.12
2018-12-02T01:50:27.664Z,434.70
2018-12-02T01:52:58.258Z,421.25
2018-12-02T01:55:28.801Z,421.80
2018-12-02T01:58:00.435Z,428.10
2018-12-02T02:00:30.029Z,430.50
2018-12-02T02:02:59.637Z,422.98
2018-12-02T02:05:29.352Z,421.30
2018-12-02T02:08:00.790Z,425.17
2018-12-02T02:10:30.414Z,432.20
2018-12-02T02:13:00.015Z,421.95
2018-12-02T02:15:29.495Z,432.05
2018-12-02T02:18:00.053Z,431.55
2018-12-02T02:20:29.565Z,434.07
2018-12-02T02:22:59.038Z,427.80
2018-12-02T02:25:30.648Z,436.40
2018-12-02T02:28:00.278Z,439.40
2018-12-02T02:30:30.520Z,440.95
2018-12-02T02:33:00.018Z,449.20
2018-12-02T02:35:29.775Z,435.15
2018-12-02T02:37:59.531Z,454.87
2018-12-02T02:40:30.469Z,445.75
2018-12-02T02:43:00.177Z,429.97
2018-12-02T02:45:29.664Z,455.37
2018-12-02T02:47:59.230Z,446.63
2018-12-02T02:50:29.757Z,444.77
2018-12-02T02:53:01.500Z,459.33
2018-12-02T02:55:32.099Z,461.68
2018-12-02T02:58:01.687Z,463.95
2018-12-02T03:00:31.209Z,453.12
2018-12-02T03:03:01.711Z,463.65
2018-12-02T03:05:31.914Z,468.82
2018-12-02T03:08:01.584Z,475.55
2018-12-02T03:10:31.684Z,478.08
2018-12-02T03:13:02.263Z,482.17
2018-12-02T03:15:33.985Z,467.00
2018-12-02T03:18:03.626Z,473.37
2018-12-02T03:20:33.108Z,473.28
2018-12-02T03:23:02.682Z,481.65
2018-12-02T03:25:33.494Z,487.42
2018-12-02T03:28:03.065Z,477.28
2018-12-02T03:30:34.974Z,479.55
2018-12-02T03:33:04.503Z,484.95
2018-12-02T03:35:35.133Z,477.28
2018-12-02T03:38:04.786Z,482.73
2018-12-02T03:40:34.277Z,489.87
2018-12-02T03:43:03.925Z,496.68
2018-12-02T03:45:34.455Z,488.20
2018-12-02T03:48:03.992Z,492.85
2018-12-02T03:50:33.510Z,508.83
2018-12-02T03:53:04.706Z,504.53
2018-12-02T03:55:37.464Z,503.95
2018-12-02T03:58:07.091Z,496.50
2018-12-02T04:00:36.553Z,500.27
2018-12-02T04:03:06.033Z,499.08
2018-12-02T04:05:36.192Z,501.52
2018-12-02T04:08:06.074Z,511.02
2018-12-02T04:10:35.611Z,503.85
2018-12-02T04:13:06.347Z,516.85
2018-12-02T04:15:36.037Z,512.53
2018-12-02T04:18:05.721Z,520.55
2018-12-02T04:20:35.309Z,510.90
2018-12-02T04:23:05.454Z,524.30
2018-12-02T04:25:35.134Z,516.80
2018-12-02T04:28:04.859Z,520.02
2018-12-02T04:30:36.075Z,526.37
2018-12-02T04:33:05.793Z,522.20
2018-12-02T04:35:35.385Z,521.45
2018-12-02T04:38:06.849Z,515.62
2018-12-02T04:40:37.487Z,517.10
2018-12-02T04:43:07.095Z,517.77
2018-12-02T04:45:36.642Z,512.90
2018-12-02T04:48:06.261Z,505.77
2018-12-02T04:50:35.909Z,505.05
2018-12-02T04:53:05.885Z,501.15
2018-12-02T04:55:38.119Z,511.75
2018-12-02T04:58:08.217Z,509.13
2018-12-02T05:00:37.733Z,502.70
2018-12-02T05:03:07.610Z,500.75
2018-12-02T05:05:37.851Z,492.68
2018-12-02T05:08:08.295Z,485.52
2018-12-02T05:10:38.868Z,479.27
2018-12-02T05:13:08.479Z,485.30
2018-12-02T05:15:38.126Z,491.02
2018-12-02T05:18:07.842Z,499.05
2018-12-02T05:20:40.258Z,491.53
2018-12-02T05:23:11.873Z,483.30
2018-12-02T05:25:41.491Z,480.93
2018-12-02T05:28:11.067Z,495.45
2018-12-02T05:30:40.596Z,495.20
2018-12-02T05:33:11.089Z,492.60
2018-12-02T05:35:40.709Z,493.50
2018-12-02T05:38:10.266Z,482.80
2018-12-02T05:40:39.733Z,483.65
2018-12-02T05:43:09.340Z,494.67
2018-12-02T05:45:38.984Z,497.10
2018-12-02T05:48:08.464Z,493.07
2018-12-02T05:50:38.012Z,496.15
2018-12-02T05:53:07.721Z,498.35
2018-12-02T05:55:38.913Z,503.85
2018-12-02T05:58:08.526Z,507.95
2018-12-02T06:00:38.114Z,497.30
2018-12-02T06:03:08.208Z,494.28
2018-12-02T06:05:37.704Z,499.05
2018-12-02T06:08:09.965Z,496.27
2018-12-02T06:10:39.451Z,493.70
2018-12-02T06:13:09.097Z,487.12
2018-12-02T06:15:39.357Z,501.70
2018-12-02T06:18:08.146Z,494.40
2018-12-02T06:20:38.166Z,496.18
2018-12-02T06:23:08.372Z,496.27
2018-12-02T06:25:38.652Z,484.35
2018-12-02T06:28:08.914Z,500.60
2018-12-02T06:30:39.477Z,483.50
2018-12-02T06:33:09.689Z,496.53
2018-12-02T06:35:39.203Z,491.98
2018-12-02T06:38:09.784Z,494.97
2018-12-02T06:40:39.466Z,486.60
2018-12-02T06:43:08.956Z,488.55
2018-12-02T06:45:38.468Z,493.73
2018-12-02T06:48:07.992Z,499.02
2018-12-02T06:50:37.733Z,500.70
2018-12-02T06:53:08.568Z,502.25
2018-12-02T06:55:58.347Z,504.00
2018-12-02T07:00:44.289Z,499.52
2018-12-02T07:03:22.460Z,491.40
2018-12-02T07:05:52.250Z,501.48
2018-12-02T07:08:23.776Z,498.67
2018-12-02T07:10:53.310Z,501.13
2018-12-02T07:13:22.931Z,511.40
2018-12-02T07:15:52.525Z,519.73
2018-12-02T07:18:24.341Z,523.30
2018-12-02T07:20:55.605Z,534.10
2018-12-02T07:23:27.566Z,515.70
2018-12-02T07:25:57.192Z,529.60
2018-12-02T07:28:26.642Z,530.58
2018-12-02T07:30:57.164Z,532.77
2018-12-02T07:33:26.603Z,517.58
2018-12-02T07:35:56.255Z,546.50
2018-12-02T07:38:33.371Z,521.00
2018-12-02T07:41:03.448Z,507.65
2018-12-02T07:43:32.944Z,478.80
2018-12-02T07:46:02.398Z,478.75
2018-12-02T07:48:32.660Z,488.35
2018-12-02T07:51:02.165Z,481.45
2018-12-02T07:53:31.621Z,486.70
2018-12-02T07:56:01.097Z,483.80
2018-12-02T07:58:31.339Z,471.37
2018-12-02T08:01:00.860Z,478.08
2018-12-02T08:03:30.412Z,473.43
2018-12-02T08:06:00.020Z,466.10
2018-12-02T08:08:29.642Z,474.73
2018-12-02T08:10:59.622Z,467.00
2018-12-02T08:13:28.657Z,478.27
2018-12-02T08:15:58.218Z,474.27
2018-12-02T08:18:27.766Z,480.60
2018-12-02T08:20:57.958Z,473.13
2018-12-02T08:23:27.541Z,474.30
2018-12-02T08:25:57.067Z,465.90
2018-12-02T08:28:27.553Z,482.70
2018-12-02T08:30:57.111Z,479.72
2018-12-02T08:33:26.727Z,489.50
2018-12-02T08:35:56.304Z,509.10
2018-12-02T08:38:25.737Z,503.50
2018-12-02T08:40:56.263Z,506.07
2018-12-02T08:43:25.828Z,515.92
2018-12-02T08:45:55.413Z,517.53
2018-12-02T08:48:24.948Z,520.45
2018-12-02T08:50:54.390Z,520.20
2018-12-02T08:53:24.010Z,528.83
2018-12-02T08:55:53.474Z,537.40
2018-12-02T08:58:22.932Z,541.12
2018-12-02T09:00:52.503Z,554.25
2018-12-02T09:03:22.980Z,531.23
2018-12-02T09:05:52.592Z,553.93
2018-12-02T09:08:21.981Z,544.28
2018-12-02T09:10:52.552Z,561.35
2018-12-02T09:13:22.077Z,565.77
2018-12-02T09:15:52.656Z,550.85
2018-12-02T09:18:22.133Z,557.08
2018-12-02T09:20:52.553Z,558.80
2018-12-02T09:23:24.070Z,549.42
2018-12-02T09:25:53.620Z,544.35
2018-12-02T09:41:25.541Z,556.08
2018-12-02T09:43:56.197Z,576.13
2018-12-02T09:46:25.630Z,576.82
2018-12-02T09:48:56.113Z,572.02
2018-12-02T09:51:25.612Z,566.48
2018-12-02T09:53:55.738Z,594.47
2018-12-02T09:56:27.383Z,596.60
2018-12-02T09:58:56.115Z,592.60
2018-12-02T10:01:25.668Z,579.53
2018-12-02T10:03:57.080Z,542.00
2018-12-02T10:06:27.613Z,540.13
2018-12-02T10:08:57.177Z,534.22
2018-12-02T10:11:26.654Z,551.02
2018-12-02T10:13:56.113Z,540.77
2018-12-02T10:16:26.983Z,535.30
2018-12-02T10:18:56.515Z,531.50
2018-12-02T10:21:26.301Z,539.73
2018-12-02T10:23:55.858Z,521.00
2018-12-02T10:26:25.989Z,541.70
2018-12-02T10:28:56.540Z,523.62
2018-12-02T10:31:27.072Z,508.10
2018-12-02T10:33:56.510Z,526.02
2018-12-02T10:36:28.233Z,513.83
2018-12-02T10:38:57.752Z,507.52
2018-12-02T10:41:28.345Z,509.67
2018-12-02T10:43:58.079Z,504.70
2018-12-02T10:46:27.517Z,511.70
2018-12-02T10:48:57.124Z,513.85
2018-12-02T10:51:26.528Z,519.65
2018-12-02T10:53:55.957Z,531.50
2018-12-02T10:56:25.418Z,526.95
2018-12-02T10:58:55.047Z,530.92
2018-12-02T11:01:29.812Z,527.10
2018-12-02T11:04:01.407Z,511.62
2018-12-02T11:06:30.874Z,507.50
2018-12-02T11:09:00.341Z,503.73
2018-12-02T11:11:30.015Z,506.20
2018-12-02T11:13:59.480Z,484.47
2018-12-02T11:16:29.570Z,494.40
2018-12-02T11:18:59.117Z,481.15
2018-12-02T11:21:28.613Z,499.43
2018-12-02T11:23:58.100Z,505.07
2018-12-02T11:26:28.883Z,491.85
2018-12-02T11:28:59.010Z,501.93
2018-12-02T11:31:29.303Z,508.05
2018-12-02T11:33:58.802Z,509.95
2018-12-02T11:36:28.392Z,527.37
2018-12-02T11:38:57.916Z,532.73
2018-12-02T11:41:28.421Z,543.08
2018-12-02T11:43:58.056Z,541.75
2018-12-02T11:46:27.587Z,536.92
2018-12-02T11:48:58.157Z,550.67
2018-12-02T11:51:27.624Z,553.85
2018-12-02T11:53:57.046Z,543.58
2018-12-02T11:56:26.476Z,542.80
2018-12-02T11:58:55.964Z,551.77
2018-12-02T12:01:26.477Z,549.05
2018-12-02T12:03:56.171Z,549.85
2018-12-02T12:06:25.904Z,555.98
2018-12-02T12:08:55.497Z,559.42
2018-12-02T12:11:24.993Z,554.40
2018-12-02T12:13:55.565Z,558.02
2018-12-02T12:16:25.114Z,559.37
2018-12-02T12:18:54.702Z,553.98
2018-12-02T12:22:39.234Z,559.98
2018-12-02T12:25:09.640Z,566.65
2018-12-02T12:27:39.294Z,568.85
2018-12-02T12:30:14.968Z,566.67
2018-12-02T12:32:44.478Z,573.15
2018-12-02T12:35:16.358Z,576.33
2018-12-02T12:37:46.435Z,579.15
2018-12-02T12:40:31.846Z,569.55
2018-12-02T12:43:33.828Z,559.35
2018-12-02T12:46:04.749Z,559.70
2018-12-02T12:48:34.202Z,565.83
2018-12-02T12:51:03.781Z,569.03
2018-12-02T13:06:36.555Z,551.83
2018-12-02T13:09:09.020Z,546.67
2018-12-02T13:11:38.512Z,548.02
2018-12-02T13:14:09.057Z,547.13
2018-12-02T13:16:38.708Z,540.08
2018-12-02T13:19:08.196Z,545.60
2018-12-02T13:21:37.739Z,552.23
2018-12-02T13:24:07.149Z,561.30
2018-12-02T13:26:37.676Z,557.37
2018-12-02T13:29:08.052Z,561.43
2018-12-02T13:31:37.554Z,578.23
2018-12-02T13:34:07.115Z,585.50
2018-12-02T13:36:36.658Z,585.60
2018-12-02T13:39:10.120Z,587.10
2018-12-02T13:41:39.599Z,594.73
2018-12-02T13:44:09.150Z,593.67
2018-12-02T13:46:38.685Z,592.48
2018-12-02T13:49:08.935Z,582.27
2018-12-02T13:51:38.520Z,587.45
2018-12-02T13:54:14.383Z,578.08
2018-12-02T13:56:44.676Z,586.25
2018-12-02T13:59:14.868Z,579.85
2018-12-02T14:01:47.209Z,582.45
2018-12-02T14:04:17.103Z,586.62
2018-12-02T14:06:47.167Z,571.27
2018-12-02T14:09:16.631Z,570.55
2018-12-02T14:11:46.576Z,578.42
2018-12-02T14:14:17.080Z,581.63
2018-12-02T14:16:51.700Z,587.33
2018-12-02T14:19:21.157Z,575.48
2018-12-02T14:21:51.761Z,580.73
2018-12-02T14:24:21.221Z,570.88
2018-12-02T14:26:50.911Z,591.42
2018-12-02T14:29:26.770Z,575.48
2018-12-02T14:31:57.988Z,579.67
2018-12-02T14:34:27.551Z,577.90
2018-12-02T14:36:57.074Z,583.58
2018-12-02T14:39:26.549Z,581.73
2018-12-02T14:41:56.066Z,579.30
2018-12-02T14:44:25.615Z,563.92
2018-12-02T14:46:55.253Z,570.30
2018-12-02T14:49:24.789Z,581.33
2018-12-02T14:51:54.322Z,568.92
2018-12-02T14:54:24.577Z,565.40
2018-12-02T14:56:55.152Z,579.33
2018-12-02T14:59:24.625Z,579.67
2018-12-02T15:01:54.223Z,588.72
2018-12-02T15:04:23.759Z,579.20
2018-12-02T15:19:56.401Z,581.30
2018-12-02T15:22:25.926Z,566.15
2018-12-02T15:24:56.495Z,568.95
2018-12-02T15:27:26.140Z,572.03
2018-12-02T15:29:56.641Z,579.05
2018-12-02T15:32:26.172Z,574.83
2018-12-02T15:47:58.208Z,582.38
2018-12-02T15:50:27.742Z,561.73
2018-12-02T15:53:00.508Z,566.48
2018-12-02T15:55:31.254Z,568.13
2018-12-02T15:58:03.668Z,576.17
2018-12-02T16:00:36.645Z,564.70
2018-12-02T16:03:06.608Z,567.43
2018-12-02T16:05:36.152Z,566.48
2018-12-02T16:08:07.875Z,565.58
2018-12-02T16:10:37.369Z,566.27
2018-12-02T16:13:08.959Z,570.47
2018-12-02T16:15:38.499Z,573.47
2018-12-02T16:18:09.683Z,566.00
2018-12-02T16:20:47.597Z,572.40
2018-12-02T16:23:19.766Z,580.30
2018-12-02T16:25:50.110Z,578.23
2018-12-02T16:28:19.783Z,577.35
2018-12-02T16:30:51.490Z,585.97
2018-12-02T16:33:20.913Z,587.30
2018-12-02T16:35:50.480Z,585.97
2018-12-02T16:38:20.009Z,581.17
2018-12-02T16:40:51.951Z,592.67
2018-12-02T16:43:22.556Z,589.37
2018-12-02T16:45:52.186Z,596.53
2018-12-02T16:48:22.774Z,585.13
2018-12-02T16:50:54.319Z,574.62
2018-12-02T16:53:30.947Z,579.35
2018-12-02T16:56:04.177Z,582.70
2018-12-02T16:59:12.913Z,584.33
2018-12-02T17:01:45.100Z,588.85
2018-12-02T17:04:14.740Z,591.95
2018-12-02T17:06:44.272Z,593.17
2018-12-02T17:09:13.995Z,591.83
2018-12-02T17:11:43.901Z,587.67
2018-12-02T17:14:14.487Z,588.05
2018-12-02T17:16:44.929Z,594.15
2018-12-02T17:19:14.532Z,590.35
2018-12-02T17:21:44.132Z,583.55
2018-12-02T17:24:13.688Z,584.40
2018-12-02T17:26:43.186Z,583.62
2018-12-02T17:29:15.709Z,595.42
2018-12-02T17:32:05.527Z,600.30
2018-12-02T17:34:34.963Z,598.90
2018-12-02T17:37:04.397Z,597.90
2018-12-02T17:39:35.717Z,602.95
2018-12-02T17:42:08.165Z,600.15
2018-12-02T17:44:38.391Z,603.23
2018-12-02T17:47:08.959Z,604.02
2018-12-02T17:49:38.488Z,591.95
2018-12-02T17:52:08.333Z,610.48
2018-12-02T17:54:37.791Z,606.58
2018-12-02T17:57:07.424Z,603.45
2018-12-02T17:59:36.987Z,606.87
2018-12-02T18:02:06.959Z,609.75
2018-12-02T18:04:36.698Z,598.25
2018-12-02T18:07:08.440Z,593.52
2018-12-02T18:09:38.032Z,597.20
2018-12-02T18:12:08.530Z,600.33
2018-12-02T18:14:37.969Z,601.55
2018-12-02T18:17:08.077Z,602.95
2018-12-02T18:19:37.559Z,595.75
2018-12-02T18:22:07.187Z,599.98
2018-12-02T18:24:36.678Z,604.85
2018-12-02T18:27:06.298Z,613.92
2018-12-02T18:29:35.786Z,600.20
2018-12-02T18:32:06.297Z,611.57
2018-12-02T18:34:36.261Z,617.23
2018-12-02T18:37:07.947Z,603.25
2018-12-02T18:39:37.496Z,611.05
2018-12-02T18:42:08.294Z,612.17
2018-12-02T18:44:37.818Z,611.75
2018-12-02T18:47:08.389Z,606.95
2018-12-02T18:49:38.914Z,607.33
2018-12-02T18:52:09.553Z,616.98
2018-12-02T18:54:39.684Z,622.33
2018-12-02T19:10:14.544Z,615.75
2018-12-02T19:12:44.027Z,605.98
2018-12-02T19:15:14.768Z,600.65
2018-12-02T19:17:45.032Z,606.65
2018-12-02T19:20:17.776Z,599.75
2018-12-02T19:22:48.411Z,595.55
2018-12-02T19:25:19.524Z,609.80
2018-12-02T19:27:49.042Z,604.93
2018-12-02T19:30:18.637Z,600.02
2018-12-02T19:32:49.318Z,607.00
2018-12-02T19:35:24.421Z,601.17
2018-12-02T19:37:56.631Z,594.40
2018-12-02T19:40:26.117Z,608.35
2018-12-02T19:42:55.665Z,598.07
2018-12-02T19:45:25.153Z,600.12
2018-12-02T19:47:54.728Z,611.70
2018-12-02T19:50:25.424Z,605.95
2018-12-02T19:52:54.938Z,616.73
2018-12-02T19:55:25.468Z,624.42
2018-12-02T19:57:56.880Z,616.30
2018-12-02T20:00:32.440Z,617.98
2018-12-02T20:03:02.882Z,633.80
2018-12-02T20:05:33.079Z,630.95
2018-12-02T20:08:03.014Z,634.70
2018-12-02T20:10:33.491Z,640.00
2018-12-02T20:13:11.238Z,638.53
2018-12-02T20:15:46.054Z,645.25
2018-12-02T20:18:15.710Z,645.92
2018-12-02T20:20:48.874Z,649.23
2018-12-02T20:23:24.383Z,649.85
2018-12-02T20:25:55.465Z,653.85
2018-12-02T20:28:27.333Z,664.92
2018-12-02T20:30:56.843Z,660.52
2018-12-02T20:33:26.445Z,672.83
2018-12-02T20:35:56.029Z,652.55
2018-12-02T20:38:26.483Z,660.40
2018-12-02T20:40:55.971Z,655.83
2018-12-02T20:43:25.453Z,652.88
2018-12-02T20:45:55.121Z,643.65
2018-12-02T20:48:24.646Z,650.25
2018-12-02T20:50:54.188Z,638.33
2018-12-02T20:53:23.678Z,638.77
2018-12-02T21:08:55.767Z,643.20
2018-12-02T21:11:25.388Z,639.80
2018-12-02T21:13:55.926Z,650.22
2018-12-02T21:16:25.410Z,645.60
2018-12-02T21:18:55.604Z,644.17
2018-12-02T21:21:26.186Z,657.53
2018-12-02T21:23:56.687Z,644.23
2018-12-02T21:26:26.325Z,643.70
2018-12-02T21:28:55.816Z,650.87
2018-12-02T21:31:26.319Z,635.83
2018-12-02T21:33:55.832Z,647.08
2018-12-02T21:36:25.405Z,633.75
2018-12-02T21:38:55.043Z,638.00
2018-12-02T21:41:25.538Z,656.90
2018-12-02T21:43:55.045Z,656.65
2018-12-02T21:46:24.755Z,652.35
2018-12-02T21:48:54.394Z,648.37
2018-12-02T21:51:23.810Z,657.15
2018-12-02T21:53:54.307Z,662.98
2018-12-02T21:56:24.765Z,654.10
2018-12-02T21:58:54.264Z,662.02
2018-12-02T22:01:23.789Z,658.10
2018-12-02T22:03:53.368Z,663.50
2018-12-02T22:06:23.461Z,661.15
2018-12-02T22:08:54.046Z,650.35
2018-12-02T22:11:24.602Z,656.90
2018-12-02T22:13:54.153Z,673.58
2018-12-02T22:16:23.810Z,656.05
2018-12-02T22:18:55.387Z,652.23
2018-12-02T22:21:25.003Z,664.73
2018-12-02T22:23:54.491Z,653.20
2018-12-02T22:26:25.143Z,648.85
2018-12-02T22:28:54.701Z,670.92
2018-12-02T22:31:24.229Z,649.70
2018-12-02T22:33:53.915Z,662.60
2018-12-02T22:36:23.536Z,654.90
2018-12-02T22:38:53.286Z,656.70
2018-12-02T22:43:09.530Z,674.67
2018-12-02T22:45:38.159Z,667.55
2018-12-02T22:48:06.963Z,667.17
2018-12-02T22:50:36.451Z,661.67
2018-12-02T22:54:00.726Z,652.95
2018-12-02T23:00:32.650Z,673.15
2018-12-02T23:03:01.890Z,684.87
2018-12-02T23:06:26.123Z,679.23
2018-12-02T23:12:55.243Z,687.73
2018-12-02T23:19:24.836Z,690.00
2018-12-02T23:25:54.813Z,695.65
2018-12-02T23:32:24.049Z,704.58
2018-12-02T23:38:54.962Z,699.67
2018-12-02T23:45:24.386Z,692.60
2018-12-02T23:51:53.215Z,691.30
2018-12-02T23:55:18.155Z,701.00
